Time;durP1;ratioP1;P1;durP2;ratioP2;P2;SDS_P1;SDS_P2;PMS_P1;PMS_P2;Temp;Humidity;BMP_temperature;BMP_pressure;BME280_temperature;BME280_humidity;BME280_pressure;Samples;Min_cycle;Max_cycle;Signal;HPM_P1;HPM_P2
2021/12/08 05:01:24;;;;;;;11.40;7.00;;;3.60;99.90;;;;;;5774895;23;20517;-71
2021/12/08 05:04:24;;;;;;;8.97;6.97;;;3.60;99.90;;;;;;4975504;28;20454;-71
2021/12/08 05:07:03;;;;;;;9.10;7.27;;;3.60;99.90;;;;;;4975544;28;20455;-72
2021/12/08 05:09:33;;;;;;;11.93;7.60;;;3.60;99.90;;;;;;4975546;28;20450;-71
2021/12/08 05:12:07;;;;;;;9.30;7.30;;;3.60;99.90;;;;;;4975747;28;20483;-72
2021/12/08 05:14:39;;;;;;;7.87;7.07;;;3.70;99.90;;;;;;4976197;28;20442;-71
2021/12/08 05:17:11;;;;;;;9.27;7.40;;;3.80;99.90;;;;;;4975817;28;20447;-71
2021/12/08 05:19:41;;;;;;;9.67;7.00;;;3.80;99.90;;;;;;4975497;28;20443;-71
2021/12/08 05:22:12;;;;;;;10.63;8.27;;;3.80;99.90;;;;;;4975175;28;20471;-71
2021/12/08 05:24:43;;;;;;;10.30;8.80;;;3.80;99.90;;;;;;4975754;28;20446;-70
2021/12/08 05:27:13;;;;;;;11.00;9.23;;;3.80;99.90;;;;;;4975838;28;20447;-71
2021/12/08 05:29:43;;;;;;;13.93;10.07;;;3.70;99.90;;;;;;4976045;28;20440;-71
2021/12/08 05:32:13;;;;;;;13.30;8.83;;;3.70;99.90;;;;;;4977466;28;20518;-70
2021/12/08 05:34:42;;;;;;;14.13;10.10;;;3.70;99.90;;;;;;4979595;28;20466;-71
2021/12/08 05:37:11;;;;;;;15.33;10.50;;;3.70;99.90;;;;;;4979586;28;20459;-71
2021/12/08 05:39:39;;;;;;;13.30;10.80;;;3.70;99.90;;;;;;4979718;28;20458;-71
2021/12/08 05:42:08;;;;;;;13.33;11.50;;;3.60;99.90;;;;;;4979429;28;20846;-72
2021/12/08 05:44:36;;;;;;;13.13;11.63;;;3.70;99.90;;;;;;4979471;28;20833;-72
2021/12/08 05:47:07;;;;;;;20.27;11.97;;;3.70;99.90;;;;;;4978865;28;20462;-72
2021/12/08 05:49:35;;;;;;;19.13;14.17;;;3.70;99.90;;;;;;4978827;28;20439;-73
2021/12/08 05:52:02;;;;;;;15.07;13.03;;;3.70;99.90;;;;;;4979695;28;20489;-73
2021/12/08 05:54:32;;;;;;;16.27;14.10;;;3.70;99.90;;;;;;4979600;28;20482;-73
2021/12/08 05:57:01;;;;;;;22.73;14.57;;;3.70;99.90;;;;;;4979482;28;20463;-72
2021/12/08 05:59:29;;;;;;;17.63;13.63;;;3.70;99.90;;;;;;4979669;28;20459;-72
2021/12/08 06:02:00;;;;;;;18.43;12.57;;;3.80;99.90;;;;;;4979116;28;20486;-72
2021/12/08 06:04:30;;;;;;;18.23;13.77;;;3.80;99.90;;;;;;4980105;28;20444;-73
2021/12/08 06:06:59;;;;;;;19.23;12.80;;;3.90;99.90;;;;;;4984347;28;20918;-72
2021/12/08 06:09:27;;;;;;;20.60;12.63;;;3.90;99.90;;;;;;4979603;28;20462;-72
2021/12/08 06:11:54;;;;;;;18.30;14.83;;;3.90;99.90;;;;;;4979202;28;20490;-73
2021/12/08 06:14:31;;;;;;;19.40;14.40;;;3.90;99.90;;;;;;4979949;28;20470;-74
2021/12/08 06:16:59;;;;;;;18.43;14.57;;;3.90;99.90;;;;;;4979297;28;20449;-74
2021/12/08 06:19:26;;;;;;;24.40;15.90;;;3.90;99.90;;;;;;4983097;28;20455;-72
2021/12/08 06:21:53;;;;;;;25.40;17.07;;;4.00;99.90;;;;;;4991239;28;20959;-73
2021/12/08 06:24:22;;;;;;;22.97;14.73;;;4.00;99.90;;;;;;4979673;28;20809;-73
2021/12/08 06:26:50;;;;;;;21.53;13.90;;;4.00;99.90;;;;;;4979035;28;20483;-74
2021/12/08 06:29:18;;;;;;;19.53;15.00;;;4.00;99.90;;;;;;4978725;28;20459;-73
2021/12/08 06:31:46;;;;;;;17.53;12.53;;;4.00;99.90;;;;;;4978418;28;20490;-73
2021/12/08 06:34:13;;;;;;;20.67;15.00;;;4.00;99.90;;;;;;4979268;28;20463;-73
2021/12/08 06:36:45;;;;;;;15.80;12.53;;;4.00;99.90;;;;;;4979027;28;20462;-74
2021/12/08 06:39:17;;;;;;;17.53;12.97;;;4.00;99.90;;;;;;4979283;28;20446;-72
2021/12/08 06:41:51;;;;;;;16.10;12.00;;;4.00;99.90;;;;;;4979660;28;20475;-74
2021/12/08 06:44:25;;;;;;;22.13;12.23;;;4.00;99.90;;;;;;4978668;28;20439;-72
2021/12/08 06:46:53;;;;;;;16.17;11.70;;;4.00;99.90;;;;;;4979340;28;20876;-73
2021/12/08 06:49:21;;;;;;;12.70;10.50;;;4.00;99.90;;;;;;4979734;28;20466;-73
2021/12/08 06:51:51;;;;;;;14.77;10.70;;;4.00;99.90;;;;;;4980384;28;20486;-73
2021/12/08 06:54:23;;;;;;;15.13;11.87;;;4.00;99.90;;;;;;4980203;28;20427;-74
2021/12/08 06:57:00;;;;;;;12.43;9.67;;;4.10;99.90;;;;;;4979886;28;20435;-72
2021/12/08 06:59:32;;;;;;;12.53;9.07;;;4.10;99.90;;;;;;4979364;28;20520;-72
2021/12/08 07:02:06;;;;;;;10.63;9.33;;;4.10;99.90;;;;;;4979597;28;20475;-72
2021/12/08 07:04:53;;;;;;;12.93;10.50;;;4.20;99.90;;;;;;4978889;28;20447;-72
2021/12/08 07:07:23;;;;;;;13.33;9.37;;;4.30;99.90;;;;;;4979224;28;20498;-72
2021/12/08 07:09:52;;;;;;;13.17;9.00;;;4.30;99.90;;;;;;4979138;28;20455;-72
2021/12/08 07:12:24;;;;;;;9.53;8.53;;;4.30;99.90;;;;;;4978906;28;20492;-73
2021/12/08 07:14:54;;;;;;;14.37;10.50;;;4.30;99.90;;;;;;4978281;28;20447;-72
2021/12/08 07:17:24;;;;;;;15.13;11.00;;;4.40;99.90;;;;;;4978305;28;20458;-72
2021/12/08 07:20:03;;;;;;;15.07;11.30;;;4.40;99.90;;;;;;4978754;28;20459;-72
2021/12/08 07:22:33;;;;;;;16.00;13.00;;;4.40;99.90;;;;;;4977984;28;20565;-73
2021/12/08 07:25:02;;;;;;;13.40;11.53;;;4.40;99.90;;;;;;4977681;28;20440;-72
2021/12/08 07:27:34;;;;;;;17.30;12.80;;;4.40;99.90;;;;;;4978047;28;20466;-72
2021/12/08 07:30:06;;;;;;;16.17;11.50;;;4.40;99.90;;;;;;4977783;28;20439;-72
2021/12/08 07:32:35;;;;;;;15.70;12.20;;;4.40;99.90;;;;;;4977559;28;20994;-73
2021/12/08 07:35:09;;;;;;;17.10;12.50;;;4.40;99.90;;;;;;4977543;28;20462;-71
2021/12/08 07:37:36;;;;;;;17.30;13.07;;;4.50;99.90;;;;;;4980402;28;20439;-73
2021/12/08 07:40:10;;;;;;;23.63;13.60;;;4.40;99.90;;;;;;4978121;28;20448;-72
2021/12/08 07:42:42;;;;;;;15.93;12.33;;;4.40;99.90;;;;;;4977867;28;20447;-68
2021/12/08 07:45:14;;;;;;;15.30;11.33;;;4.60;99.90;;;;;;4977349;28;20439;-67
2021/12/08 07:47:42;;;;;;;14.47;11.53;;;5.10;99.90;;;;;;4977829;28;20473;-68
2021/12/08 07:50:14;;;;;;;16.00;12.50;;;5.40;99.90;;;;;;4976957;28;20950;-67
2021/12/08 07:52:45;;;;;;;12.90;11.57;;;5.60;99.90;;;;;;4977160;28;20466;-68
2021/12/08 07:55:16;;;;;;;17.13;12.40;;;5.60;99.90;;;;;;4977231;28;20440;-72
2021/12/08 07:57:45;;;;;;;18.03;12.87;;;5.40;99.90;;;;;;4977597;28;20443;-71
2021/12/08 08:00:16;;;;;;;16.40;12.20;;;5.20;99.90;;;;;;4976925;28;20462;-71
2021/12/08 08:02:44;;;;;;;16.50;13.13;;;5.00;99.90;;;;;;4976925;28;20448;-72
2021/12/08 08:05:10;;;;;;;17.13;13.20;;;4.90;99.90;;;;;;4977451;28;20440;-72
2021/12/08 08:07:40;;;;;;;16.20;13.33;;;4.70;99.90;;;;;;4977265;28;20459;-72
2021/12/08 08:10:13;;;;;;;20.43;13.13;;;4.70;99.90;;;;;;4980357;28;20522;-72
2021/12/08 08:12:41;;;;;;;13.73;12.30;;;4.60;99.90;;;;;;4980464;28;20604;-71
2021/12/08 08:15:15;;;;;;;13.73;12.23;;;4.60;99.90;;;;;;4977122;28;20462;-72
2021/12/08 08:17:45;;;;;;;17.30;12.43;;;4.60;99.90;;;;;;4976706;28;20443;-71
2021/12/08 08:20:16;;;;;;;23.93;12.13;;;4.60;99.90;;;;;;4976698;28;20502;-70
2021/12/08 08:22:43;;;;;;;20.33;13.13;;;4.60;99.90;;;;;;4976568;28;20443;-72
2021/12/08 08:25:13;;;;;;;17.37;12.20;;;4.60;99.90;;;;;;4976548;28;20455;-71
2021/12/08 08:27:41;;;;;;;13.37;11.70;;;4.60;99.90;;;;;;4976309;28;20860;-72
2021/12/08 08:30:11;;;;;;;16.00;11.40;;;4.60;99.90;;;;;;4976488;28;20442;-72
2021/12/08 08:32:39;;;;;;;16.20;12.27;;;4.60;99.90;;;;;;4976749;28;20470;-72
2021/12/08 08:35:15;;;;;;;16.30;12.37;;;4.70;99.90;;;;;;4975916;28;20463;-73
2021/12/08 08:37:43;;;;;;;12.23;10.93;;;4.70;99.90;;;;;;4976519;28;20439;-72
2021/12/08 08:40:16;;;;;;;11.60;10.37;;;4.80;99.90;;;;;;4976657;28;20459;-72
2021/12/08 08:42:43;;;;;;;13.60;10.90;;;4.90;99.90;;;;;;4976813;28;20456;-72
2021/12/08 08:45:15;;;;;;;13.87;10.53;;;4.90;99.90;;;;;;4976238;28;20459;-72
2021/12/08 08:47:45;;;;;;;13.23;11.73;;;4.90;99.90;;;;;;4976590;28;20440;-72
2021/12/08 08:50:17;;;;;;;11.70;10.00;;;5.00;99.90;;;;;;4976074;28;20459;-72
2021/12/08 08:52:48;;;;;;;16.00;11.37;;;4.90;99.90;;;;;;4976085;28;20467;-72
2021/12/08 08:55:21;;;;;;;12.00;10.80;;;4.90;99.90;;;;;;4976004;28;20454;-72
2021/12/08 08:57:49;;;;;;;11.60;9.77;;;4.90;99.90;;;;;;4976865;28;20423;-72
2021/12/08 09:00:25;;;;;;;12.43;9.77;;;5.00;99.90;;;;;;4976597;28;20455;-72
2021/12/08 09:02:53;;;;;;;10.87;9.33;;;5.00;99.90;;;;;;4976391;28;20490;-72
2021/12/08 09:05:23;;;;;;;10.83;8.90;;;5.10;99.90;;;;;;4975774;28;20451;-72
2021/12/08 09:07:53;;;;;;;10.13;9.13;;;5.10;99.90;;;;;;4976400;28;20455;-72
2021/12/08 09:10:23;;;;;;;15.57;9.17;;;5.10;99.90;;;;;;4980712;28;20876;-72
2021/12/08 09:12:54;;;;;;;11.77;10.60;;;5.10;99.90;;;;;;4984714;28;20851;-72
2021/12/08 09:15:27;;;;;;;12.83;11.30;;;5.10;99.90;;;;;;4975658;28;20900;-73
2021/12/08 09:17:58;;;;;;;16.23;10.70;;;5.10;99.90;;;;;;4975859;28;20443;-73
2021/12/08 09:20:29;;;;;;;12.30;11.00;;;5.10;99.90;;;;;;4976685;28;20447;-72
2021/12/08 09:23:00;;;;;;;13.10;10.93;;;5.10;99.90;;;;;;4977105;28;20945;-71
2021/12/08 09:25:33;;;;;;;12.87;11.20;;;5.20;99.90;;;;;;4978477;28;20534;-71
2021/12/08 09:28:06;;;;;;;13.50;10.73;;;5.20;99.90;;;;;;4977194;28;20498;-72
2021/12/08 09:30:43;;;;;;;12.50;11.10;;;5.20;99.90;;;;;;4976379;28;20961;-72
2021/12/08 09:33:15;;;;;;;11.97;10.70;;;5.20;99.90;;;;;;4976739;28;20473;-72
2021/12/08 09:35:46;;;;;;;19.70;12.43;;;5.20;99.90;;;;;;4976947;28;20902;-71
2021/12/08 09:38:17;;;;;;;15.83;11.80;;;5.20;99.90;;;;;;4978874;28;20439;-71
2021/12/08 09:40:48;;;;;;;16.20;12.03;;;5.20;99.90;;;;;;4978901;28;20483;-71
2021/12/08 09:43:19;;;;;;;13.50;12.20;;;5.10;99.90;;;;;;4983256;28;20428;-71
2021/12/08 09:45:51;;;;;;;15.77;12.00;;;5.20;99.90;;;;;;4999368;28;20442;-71
2021/12/08 09:48:18;;;;;;;14.10;12.50;;;5.20;99.90;;;;;;4992355;28;20431;-71
2021/12/08 09:50:46;;;;;;;15.30;11.57;;;5.30;99.90;;;;;;4981404;28;21009;-71
2021/12/08 09:53:14;;;;;;;12.30;10.43;;;5.30;99.90;;;;;;4983144;28;20486;-71
2021/12/08 09:55:41;;;;;;;13.77;11.00;;;5.40;99.90;;;;;;4978004;28;20459;-71
2021/12/08 09:58:09;;;;;;;17.90;12.40;;;5.40;99.90;;;;;;4978574;28;20451;-72
2021/12/08 10:00:39;;;;;;;14.40;12.60;;;5.40;99.90;;;;;;4977707;28;20563;-72
2021/12/08 10:03:08;;;;;;;14.33;11.83;;;5.40;99.90;;;;;;4977427;28;20435;-72
2021/12/08 10:05:39;;;;;;;12.70;11.40;;;5.40;99.90;;;;;;4977790;28;20454;-71
2021/12/08 10:08:08;;;;;;;13.13;11.80;;;5.40;99.90;;;;;;4977888;28;20934;-72
2021/12/08 10:10:36;;;;;;;14.77;11.77;;;5.40;99.90;;;;;;4978203;28;20482;-72
2021/12/08 10:13:04;;;;;;;13.07;11.40;;;5.40;99.90;;;;;;4978890;28;20475;-72
2021/12/08 10:15:31;;;;;;;13.03;10.00;;;5.40;99.90;;;;;;4978899;28;20455;-72
2021/12/08 10:18:00;;;;;;;17.23;10.63;;;5.40;99.90;;;;;;4978893;28;20478;-72
2021/12/08 10:20:31;;;;;;;12.27;10.87;;;5.40;99.90;;;;;;4982279;28;20451;-71
2021/12/08 10:23:11;;;;;;;14.70;11.60;;;5.50;99.90;;;;;;4981299;28;20894;-71
2021/12/08 10:25:43;;;;;;;13.70;11.40;;;5.50;99.90;;;;;;4981962;28;20461;-72
2021/12/08 10:28:13;;;;;;;11.87;10.57;;;5.50;99.90;;;;;;4981603;28;20439;-72
2021/12/08 10:30:46;;;;;;;12.73;11.00;;;5.60;99.90;;;;;;4980795;28;20479;-72
2021/12/08 10:33:52;;;;;;;16.13;12.90;;;5.60;99.90;;;;;;4980035;28;20471;-72
2021/12/08 10:39:20;;;;;;;15.43;12.00;;;5.60;99.90;;;;;;4956235;28;20554;-72
2021/12/08 10:41:53;;;;;;;17.80;11.60;;;5.60;99.90;;;;;;4980817;28;20495;-72
2021/12/08 10:44:24;;;;;;;12.17;10.33;;;5.60;99.90;;;;;;4991333;28;20431;-72
2021/12/08 10:46:54;;;;;;;11.43;10.23;;;5.50;99.90;;;;;;4981505;28;20446;-72
2021/12/08 10:49:27;;;;;;;12.73;10.67;;;5.60;99.90;;;;;;4980961;28;20539;-73
2021/12/08 10:54:39;;;;;;;11.73;9.87;;;5.50;99.90;;;;;;4981785;28;20426;-72
2021/12/08 10:57:22;;;;;;;14.40;11.23;;;5.60;99.90;;;;;;4981320;28;20459;-71
2021/12/08 10:59:55;;;;;;;11.77;10.63;;;5.60;99.90;;;;;;4981743;28;20450;-72
2021/12/08 11:02:41;;;;;;;13.03;11.20;;;5.60;99.90;;;;;;4981694;28;20479;-72
2021/12/08 11:05:28;;;;;;;12.70;11.40;;;5.60;99.90;;;;;;4980787;28;20450;-71
2021/12/08 11:08:02;;;;;;;14.67;10.70;;;5.60;99.90;;;;;;4980371;28;20446;-72
2021/12/08 11:10:29;;;;;;;13.60;12.20;;;5.70;99.90;;;;;;4978901;28;20439;-71
2021/12/08 11:12:57;;;;;;;14.83;12.17;;;5.70;99.90;;;;;;4983338;28;20993;-71
2021/12/08 11:15:26;;;;;;;12.50;11.30;;;5.70;99.90;;;;;;4978215;28;20462;-72
2021/12/08 11:18:16;;;;;;;15.13;10.60;;;5.70;99.90;;;;;;4978354;28;20537;-72
2021/12/08 11:20:50;;;;;;;11.60;10.40;;;5.70;99.90;;;;;;4977914;28;20551;-71
2021/12/08 11:23:29;;;;;;;11.37;9.87;;;5.80;99.90;;;;;;4978213;28;20439;-73
2021/12/08 11:25:58;;;;;;;21.47;19.37;;;5.90;99.90;;;;;;4978270;28;20467;-72
2021/12/08 11:28:33;;;;;;;14.40;11.20;;;5.90;99.90;;;;;;4979862;28;20498;-72
2021/12/08 11:31:07;;;;;;;13.67;9.97;;;6.00;99.90;;;;;;4979010;28;20973;-72
2021/12/08 11:33:36;;;;;;;11.33;9.67;;;6.10;99.90;;;;;;4979522;28;20503;-72
2021/12/08 11:36:12;;;;;;;13.37;10.00;;;6.10;99.90;;;;;;4978586;28;20455;-71
2021/12/08 11:38:41;;;;;;;11.60;10.50;;;6.20;99.90;;;;;;4978514;28;20443;-71
2021/12/08 11:41:29;;;;;;;11.43;10.40;;;6.20;99.90;;;;;;4977912;28;20538;-72
2021/12/08 11:43:58;;;;;;;10.10;9.03;;;6.20;99.90;;;;;;4970063;28;20452;-72
2021/12/08 11:46:26;;;;;;;11.67;9.50;;;6.20;99.90;;;;;;4979544;28;20458;-72
2021/12/08 11:49:03;;;;;;;10.53;8.40;;;6.30;99.90;;;;;;4979787;28;20462;-71
2021/12/08 11:51:37;;;;;;;10.07;9.17;;;6.30;99.90;;;;;;4979702;28;20478;-72
2021/12/08 11:54:05;;;;;;;9.80;8.83;;;6.30;99.90;;;;;;4979740;28;20513;-72
2021/12/08 11:56:38;;;;;;;8.77;7.77;;;6.30;99.90;;;;;;4979693;28;20455;-71
2021/12/08 11:59:09;;;;;;;10.50;9.40;;;6.40;99.90;;;;;;4979273;28;20453;-71
2021/12/08 12:01:37;;;;;;;9.93;9.03;;;6.40;99.90;;;;;;4978506;28;20494;-72
2021/12/08 12:04:05;;;;;;;9.87;8.97;;;6.40;99.90;;;;;;4978541;28;20557;-72
2021/12/08 12:06:34;;;;;;;10.30;8.03;;;6.50;99.90;;;;;;4980836;28;20466;-71
2021/12/08 12:09:02;;;;;;;9.47;8.40;;;6.50;99.90;;;;;;4982219;28;20462;-71
2021/12/08 12:11:31;;;;;;;8.90;8.03;;;6.50;99.90;;;;;;4981074;28;20487;-71
2021/12/08 12:14:01;;;;;;;10.07;9.20;;;6.60;99.90;;;;;;4983978;28;20502;-71
2021/12/08 12:16:29;;;;;;;9.47;8.60;;;6.60;99.90;;;;;;4990094;28;20466;-72
2021/12/08 12:18:59;;;;;;;9.80;9.00;;;6.60;99.90;;;;;;4977847;28;20462;-72
2021/12/08 12:21:36;;;;;;;9.60;8.73;;;6.60;99.90;;;;;;4976909;28;20978;-72
2021/12/08 12:24:15;;;;;;;10.70;8.70;;;6.70;99.90;;;;;;4977391;28;20435;-71
2021/12/08 12:26:53;;;;;;;9.60;8.60;;;6.60;99.90;;;;;;4977836;28;20915;-71
2021/12/08 12:29:36;;;;;;;8.87;8.17;;;6.60;99.90;;;;;;4977346;28;20848;-71
2021/12/08 12:32:06;;;;;;;9.77;8.87;;;6.60;99.90;;;;;;4977068;28;20566;-71
2021/12/08 12:34:34;;;;;;;9.40;8.50;;;6.60;99.90;;;;;;4976695;28;20466;-72
2021/12/08 12:37:06;;;;;;;7.83;7.13;;;6.60;99.90;;;;;;4978506;28;20462;-72
2021/12/08 12:39:33;;;;;;;9.67;8.77;;;6.60;99.90;;;;;;4983475;28;20907;-71
2021/12/08 12:42:11;;;;;;;10.00;9.03;;;6.60;99.90;;;;;;4977513;28;20479;-71
2021/12/08 12:44:40;;;;;;;9.13;8.33;;;6.70;99.90;;;;;;4977287;28;20466;-71
2021/12/08 12:47:24;;;;;;;10.00;9.10;;;6.60;99.90;;;;;;4977321;28;20459;-71
2021/12/08 12:50:24;;;;;;;10.57;9.67;;;6.60;99.90;;;;;;4977522;28;20860;-72
2021/12/08 12:52:53;;;;;;;9.50;8.70;;;6.50;99.90;;;;;;4977380;28;20451;-72
2021/12/08 12:55:22;;;;;;;9.57;8.67;;;6.60;99.90;;;;;;4977172;28;20443;-71
2021/12/08 12:58:16;;;;;;;10.50;9.40;;;6.60;99.90;;;;;;4976793;28;20455;-72
2021/12/08 13:00:45;;;;;;;9.90;8.80;;;6.70;99.90;;;;;;4976528;28;20994;-71
2021/12/08 13:03:45;;;;;;;8.87;8.07;;;6.70;99.90;;;;;;4976279;28;20459;-71
2021/12/08 13:06:14;;;;;;;10.73;8.77;;;6.80;99.90;;;;;;4976967;28;20498;-72
2021/12/08 13:08:43;;;;;;;11.63;9.30;;;6.80;99.90;;;;;;4976229;28;20459;-72
2021/12/08 13:11:42;;;;;;;10.43;9.53;;;6.80;99.90;;;;;;4976614;28;20475;-72
2021/12/08 13:14:22;;;;;;;11.10;9.90;;;6.80;99.90;;;;;;4998472;28;20464;-72
2021/12/08 13:17:12;;;;;;;8.53;7.73;;;6.80;99.90;;;;;;4987618;28;20431;-71
2021/12/08 13:19:41;;;;;;;10.20;9.20;;;6.90;99.90;;;;;;4978746;28;20925;-71
2021/12/08 13:22:08;;;;;;;8.87;8.17;;;6.90;99.90;;;;;;4978153;28;20471;-72
2021/12/08 13:24:40;;;;;;;9.30;8.13;;;6.90;99.90;;;;;;4977429;28;20483;-72
2021/12/08 13:27:08;;;;;;;8.83;8.03;;;6.90;99.90;;;;;;4975997;28;20495;-71
2021/12/08 13:29:40;;;;;;;10.13;9.00;;;6.80;99.90;;;;;;4976375;28;20465;-70
2021/12/08 13:32:11;;;;;;;9.47;8.57;;;6.80;99.90;;;;;;4975686;28;20475;-71
2021/12/08 13:34:41;;;;;;;9.77;8.87;;;6.70;99.90;;;;;;4977441;28;20469;-71
2021/12/08 13:37:20;;;;;;;10.43;9.23;;;6.70;99.90;;;;;;4977196;28;20482;-71
2021/12/08 13:39:49;;;;;;;10.53;9.40;;;6.70;99.90;;;;;;4977091;28;20450;-71
2021/12/08 13:42:18;;;;;;;10.10;9.20;;;6.70;99.90;;;;;;4976875;28;20467;-72
2021/12/08 13:44:55;;;;;;;11.23;10.00;;;6.70;99.90;;;;;;4976588;28;20458;-71
2021/12/08 13:47:31;;;;;;;12.17;8.77;;;6.60;99.90;;;;;;4982126;28;20435;-72
2021/12/08 13:50:07;;;;;;;10.60;9.60;;;6.60;99.90;;;;;;4979827;28;20434;-72
2021/12/08 13:52:36;;;;;;;11.50;9.53;;;6.50;99.90;;;;;;4977784;28;20481;-72
2021/12/08 13:55:20;;;;;;;13.30;9.80;;;6.40;99.90;;;;;;4979855;28;20989;-72
2021/12/08 13:57:49;;;;;;;10.93;9.83;;;6.40;99.90;;;;;;4980441;28;20470;-71
2021/12/08 14:00:31;;;;;;;11.03;9.63;;;6.40;99.90;;;;;;4979726;28;20458;-73
2021/12/08 14:03:07;;;;;;;11.20;10.20;;;6.40;99.90;;;;;;4979799;28;20443;-72
2021/12/08 14:05:40;;;;;;;11.77;10.70;;;6.30;99.90;;;;;;4980009;28;20443;-71
2021/12/08 14:08:10;;;;;;;13.17;11.97;;;6.30;99.90;;;;;;4979606;28;20827;-72
2021/12/08 14:10:40;;;;;;;12.43;11.23;;;6.30;99.90;;;;;;4979411;28;20516;-71
2021/12/08 14:13:09;;;;;;;12.20;11.10;;;6.30;99.90;;;;;;4979439;28;20465;-71
2021/12/08 14:15:43;;;;;;;12.37;11.07;;;6.30;99.90;;;;;;4979757;28;20479;-72
2021/12/08 14:18:18;;;;;;;13.50;12.10;;;6.30;99.90;;;;;;4979687;28;20443;-72
2021/12/08 14:20:48;;;;;;;13.00;11.80;;;6.30;99.90;;;;;;4979018;28;20969;-71
2021/12/08 14:23:15;;;;;;;22.73;12.87;;;6.30;99.90;;;;;;4979225;28;20462;-71
2021/12/08 14:25:45;;;;;;;14.47;13.07;;;6.40;99.90;;;;;;4978743;28;20455;-72
2021/12/08 14:28:41;;;;;;;12.93;11.63;;;6.30;99.90;;;;;;4979048;28;20526;-71
2021/12/08 14:31:25;;;;;;;13.10;11.73;;;6.40;99.90;;;;;;4981426;28;20475;-70
2021/12/08 14:34:11;;;;;;;14.13;11.93;;;6.40;99.90;;;;;;4980631;28;20481;-71
2021/12/08 14:36:49;;;;;;;12.00;10.90;;;6.30;99.90;;;;;;4979727;28;20471;-70
2021/12/08 14:39:22;;;;;;;11.63;10.53;;;6.40;99.90;;;;;;4979229;28;20800;-70
2021/12/08 14:41:53;;;;;;;13.07;9.77;;;6.40;99.90;;;;;;4980016;28;20506;-70
2021/12/08 14:44:23;;;;;;;11.07;10.07;;;6.50;99.90;;;;;;4979632;28;20440;-70
2021/12/08 14:46:53;;;;;;;11.03;10.03;;;6.50;99.90;;;;;;4978433;28;20456;-71
2021/12/08 14:49:27;;;;;;;12.70;11.40;;;6.50;99.90;;;;;;4980909;28;20447;-70
2021/12/08 14:51:56;;;;;;;12.13;9.87;;;6.50;99.90;;;;;;4977888;28;20553;-70
2021/12/08 14:54:26;;;;;;;11.20;10.10;;;6.50;99.90;;;;;;4978690;28;20494;-70
2021/12/08 14:57:06;;;;;;;12.40;11.10;;;6.50;99.90;;;;;;4978600;28;20455;-70
2021/12/08 14:59:35;;;;;;;12.57;11.30;;;6.40;99.90;;;;;;4977988;28;20930;-70
2021/12/08 15:02:03;;;;;;;12.13;10.90;;;6.40;99.90;;;;;;4977779;28;20490;-71
2021/12/08 15:04:31;;;;;;;12.10;10.80;;;6.40;99.90;;;;;;4976652;28;20943;-70
2021/12/08 15:07:00;;;;;;;11.87;10.70;;;6.40;99.90;;;;;;4977983;28;20462;-70
2021/12/08 15:09:27;;;;;;;12.63;11.43;;;6.40;99.90;;;;;;4978677;28;20459;-71
2021/12/08 15:11:55;;;;;;;13.83;12.33;;;6.40;99.90;;;;;;4979066;28;20483;-70
2021/12/08 15:14:22;;;;;;;12.30;11.00;;;6.40;99.90;;;;;;4978912;28;20514;-71
2021/12/08 15:16:51;;;;;;;13.37;11.97;;;6.40;99.90;;;;;;4979760;28;20459;-70
2021/12/08 15:19:21;;;;;;;14.43;12.83;;;6.40;99.90;;;;;;4983808;28;20450;-71
2021/12/08 15:21:51;;;;;;;12.73;11.43;;;6.40;99.90;;;;;;4982597;28;20471;-70
2021/12/08 15:24:20;;;;;;;13.10;11.73;;;6.40;99.90;;;;;;4979307;28;20539;-70
2021/12/08 15:26:48;;;;;;;15.40;12.43;;;6.30;99.90;;;;;;4980088;28;20466;-70
2021/12/08 15:29:21;;;;;;;15.50;13.90;;;6.30;99.90;;;;;;4979566;28;20947;-70
2021/12/08 15:31:52;;;;;;;13.80;12.50;;;6.20;99.90;;;;;;4980388;28;20479;-70
2021/12/08 15:34:22;;;;;;;14.90;13.40;;;6.20;99.90;;;;;;4979205;28;20471;-71
2021/12/08 15:36:58;;;;;;;17.07;14.13;;;6.20;99.90;;;;;;4979827;28;20475;-71
2021/12/08 15:39:27;;;;;;;15.13;13.60;;;6.20;99.90;;;;;;4978724;28;20461;-70
2021/12/08 15:41:54;;;;;;;18.40;14.50;;;6.20;99.90;;;;;;4978692;28;20479;-70
2021/12/08 15:44:21;;;;;;;16.37;14.67;;;6.20;99.90;;;;;;4979888;28;20461;-71
2021/12/08 15:46:50;;;;;;;15.83;14.30;;;6.10;99.90;;;;;;4979558;28;20494;-71
2021/12/08 15:49:24;;;;;;;16.07;14.33;;;6.10;99.90;;;;;;4979668;28;20459;-71
2021/12/08 15:51:51;;;;;;;15.57;13.97;;;6.10;99.90;;;;;;4978984;28;20474;-71
2021/12/08 15:54:20;;;;;;;17.70;14.30;;;6.20;99.90;;;;;;4979074;28;20533;-71
2021/12/08 15:56:47;;;;;;;15.30;13.67;;;6.10;99.90;;;;;;4979338;28;20459;-71
2021/12/08 15:59:20;;;;;;;16.10;14.40;;;6.20;99.90;;;;;;4979086;28;20455;-71
2021/12/08 16:01:50;;;;;;;15.47;13.93;;;6.20;99.90;;;;;;4978826;28;20479;-70
2021/12/08 16:04:18;;;;;;;15.23;13.63;;;6.20;99.90;;;;;;4979343;28;20526;-70
2021/12/08 16:06:50;;;;;;;15.90;14.30;;;6.20;99.90;;;;;;4979926;28;20459;-71
2021/12/08 16:09:20;;;;;;;17.73;14.90;;;6.20;99.90;;;;;;4979540;28;20435;-71
2021/12/08 16:11:48;;;;;;;16.40;14.20;;;6.20;99.90;;;;;;4979388;28;20479;-70
2021/12/08 16:14:18;;;;;;;15.70;14.07;;;6.30;99.90;;;;;;4979242;28;20479;-71
2021/12/08 16:16:46;;;;;;;15.43;13.90;;;6.30;99.90;;;;;;4978468;28;20517;-70
2021/12/08 16:19:16;;;;;;;14.87;13.37;;;6.20;99.90;;;;;;4979136;28;20461;-71
2021/12/08 16:21:43;;;;;;;14.57;13.07;;;6.20;99.90;;;;;;4978751;28;20547;-70
2021/12/08 16:24:12;;;;;;;15.13;13.20;;;6.30;99.90;;;;;;4978607;28;20455;-71
2021/12/08 16:26:49;;;;;;;16.87;14.00;;;6.20;99.90;;;;;;4978444;28;20451;-71
2021/12/08 16:29:15;;;;;;;14.53;12.20;;;6.20;99.90;;;;;;4978123;28;20447;-70
2021/12/08 16:31:42;;;;;;;18.57;13.17;;;6.20;99.90;;;;;;4978814;28;20483;-72
2021/12/08 16:34:09;;;;;;;15.83;13.70;;;6.20;99.90;;;;;;4978312;28;20466;-72
2021/12/08 16:36:36;;;;;;;15.87;14.20;;;6.10;99.90;;;;;;4979341;28;20458;-73
2021/12/08 16:39:04;;;;;;;20.33;16.73;;;6.10;99.90;;;;;;4999048;28;20452;-72
2021/12/08 16:44:16;;;;;;;15.53;13.93;;;6.10;99.90;;;;;;4979915;28;20470;-72
2021/12/08 16:46:43;;;;;;;15.60;12.83;;;6.10;99.90;;;;;;4983826;28;20455;-71
2021/12/08 16:49:10;;;;;;;16.63;14.10;;;6.10;99.90;;;;;;4979195;28;20463;-72
2021/12/08 16:51:38;;;;;;;15.40;13.67;;;6.20;99.90;;;;;;4978105;28;20971;-72
2021/12/08 16:54:04;;;;;;;15.13;13.53;;;6.10;99.90;;;;;;4979176;28;20459;-72
2021/12/08 16:56:33;;;;;;;15.47;13.83;;;6.10;99.90;;;;;;4987936;28;20451;-74
2021/12/08 16:59:00;;;;;;;14.50;13.10;;;6.10;99.90;;;;;;4980695;28;20530;-72
2021/12/08 17:01:28;;;;;;;16.43;14.47;;;6.10;99.90;;;;;;4977256;28;20490;-73
2021/12/08 17:03:55;;;;;;;16.17;14.03;;;6.10;99.90;;;;;;4978352;28;20510;-72
2021/12/08 17:06:21;;;;;;;16.60;14.80;;;6.10;99.90;;;;;;4977916;28;20457;-73
2021/12/08 17:08:49;;;;;;;18.60;15.00;;;6.10;99.90;;;;;;4977244;28;20494;-72
2021/12/08 17:11:16;;;;;;;16.80;14.53;;;6.20;99.90;;;;;;4976920;28;20502;-72
2021/12/08 17:13:45;;;;;;;14.83;13.27;;;6.20;99.90;;;;;;4977120;28;20470;-72
2021/12/08 17:16:11;;;;;;;18.00;14.80;;;6.20;99.90;;;;;;4976970;28;20486;-72
2021/12/08 17:18:40;;;;;;;17.27;15.07;;;6.20;99.90;;;;;;4977187;28;20451;-72
2021/12/08 17:21:08;;;;;;;19.30;16.40;;;6.20;99.90;;;;;;4977205;28;20525;-72
2021/12/08 17:23:35;;;;;;;16.77;15.00;;;6.20;99.90;;;;;;4976540;28;20455;-72
2021/12/08 17:26:02;;;;;;;17.87;15.00;;;6.20;99.90;;;;;;4976533;28;21047;-72
2021/12/08 17:28:29;;;;;;;16.53;14.80;;;6.20;99.90;;;;;;4978434;28;20455;-73
2021/12/08 17:30:59;;;;;;;22.67;16.80;;;6.20;99.90;;;;;;4979961;28;21005;-73
2021/12/08 17:33:26;;;;;;;18.97;16.87;;;6.30;99.90;;;;;;4980022;28;20460;-72
2021/12/08 17:35:53;;;;;;;22.83;18.13;;;6.30;99.90;;;;;;4980390;28;20479;-72
2021/12/08 17:38:21;;;;;;;19.40;17.33;;;6.30;99.90;;;;;;4980042;28;20459;-73
2021/12/08 17:40:48;;;;;;;20.07;16.27;;;6.30;99.90;;;;;;4979751;28;20478;-73
2021/12/08 17:43:16;;;;;;;17.73;15.97;;;6.30;99.90;;;;;;4980233;28;21009;-72
2021/12/08 17:45:44;;;;;;;19.50;17.00;;;6.30;99.90;;;;;;4984989;28;20455;-73
2021/12/08 17:48:13;;;;;;;17.40;15.70;;;6.30;99.90;;;;;;4989016;28;20462;-73
2021/12/08 17:50:41;;;;;;;17.13;15.30;;;6.30;99.90;;;;;;4979086;28;20480;-73
2021/12/08 17:53:08;;;;;;;17.80;15.90;;;6.30;99.90;;;;;;4980691;28;20510;-73
2021/12/08 17:55:36;;;;;;;15.17;13.50;;;6.30;99.90;;;;;;4979842;28;20474;-73
2021/12/08 17:58:05;;;;;;;17.00;15.20;;;6.30;99.90;;;;;;4980060;28;20475;-73
2021/12/08 18:00:36;;;;;;;16.90;15.10;;;6.30;99.90;;;;;;4979709;28;20481;-73
2021/12/08 18:03:03;;;;;;;17.30;13.80;;;6.30;99.90;;;;;;4983110;28;20874;-73
2021/12/08 18:05:32;;;;;;;16.40;14.70;;;6.30;99.90;;;;;;4979604;28;20455;-73
2021/12/08 18:08:00;;;;;;;16.47;14.40;;;6.30;99.90;;;;;;4983753;28;20447;-71
2021/12/08 18:10:28;;;;;;;17.37;14.87;;;6.30;99.90;;;;;;4980825;28;20850;-72